createdAt,value
2018-09-06T00:00:01.313Z,17.20
2018-09-06T00:05:06.020Z,17.30
2018-09-06T00:10:10.615Z,17.10
2018-09-06T00:15:14.207Z,17.20
2018-09-06T00:20:22.223Z,17.00
2018-09-06T00:25:25.919Z,16.80
2018-09-06T00:30:29.647Z,16.70
2018-09-06T00:35:35.290Z,16.40
2018-09-06T00:40:38.996Z,16.30
2018-09-06T00:45:42.644Z,16.30
2018-09-06T00:50:46.221Z,16.40
2018-09-06T00:55:49.790Z,16.40
2018-09-06T01:00:53.486Z,16.30
2018-09-06T01:05:57.287Z,16.10
2018-09-06T01:11:00.843Z,16.00
2018-09-06T01:16:04.583Z,16.30
2018-09-06T01:21:08.820Z,16.10
2018-09-06T01:26:12.350Z,16.00
2018-09-06T01:31:16.163Z,15.90
2018-09-06T01:36:25.027Z,15.80
2018-09-06T01:41:28.604Z,15.70
2018-09-06T01:46:39.549Z,15.70
2018-09-06T01:51:43.119Z,15.70
2018-09-06T01:56:46.668Z,15.60
2018-09-06T02:01:50.289Z,15.60
2018-09-06T02:06:53.906Z,15.90
2018-09-06T02:11:57.448Z,16.20
2018-09-06T02:17:01.507Z,15.80
2018-09-06T02:22:05.326Z,15.60
2018-09-06T02:27:08.902Z,15.70
2018-09-06T02:32:13.030Z,15.60
2018-09-06T02:37:16.628Z,15.50
2018-09-06T02:42:20.174Z,15.50
2018-09-06T02:47:23.899Z,15.40
2018-09-06T02:52:28.479Z,15.30
2018-09-06T02:57:32.123Z,15.20
2018-09-06T03:02:35.835Z,15.20
2018-09-06T03:07:39.447Z,15.10
2018-09-06T03:12:43.179Z,15.10
2018-09-06T03:17:46.762Z,15.00
2018-09-06T03:22:50.320Z,15.10
2018-09-06T03:27:53.877Z,15.30
2018-09-06T03:33:04.962Z,15.20
2018-09-06T03:38:08.522Z,15.20
2018-09-06T03:43:13.111Z,15.00
2018-09-06T03:48:16.686Z,14.90
2018-09-06T03:53:21.382Z,14.90
2018-09-06T03:58:25.006Z,14.90
2018-09-06T04:03:28.586Z,14.90
2018-09-06T04:08:32.141Z,14.90
2018-09-06T04:13:40.520Z,14.90
2018-09-06T04:18:44.135Z,14.80
2018-09-06T04:23:47.779Z,14.70
2018-09-06T04:28:51.318Z,14.90
2018-09-06T04:33:54.996Z,14.90
2018-09-06T04:38:58.548Z,15.00
2018-09-06T04:44:02.154Z,15.00
2018-09-06T04:49:05.782Z,15.00
2018-09-06T04:54:09.353Z,15.10
2018-09-06T04:59:12.903Z,15.20
2018-09-06T05:04:18.607Z,15.30
2018-09-06T05:09:22.393Z,15.50
2018-09-06T05:14:26.026Z,15.50
2018-09-06T05:19:29.691Z,15.90
2018-09-06T05:24:33.219Z,15.80
2018-09-06T05:29:36.754Z,16.10
2018-09-06T05:34:40.766Z,16.30
2018-09-06T05:39:44.306Z,16.30
2018-09-06T05:44:52.709Z,16.80
2018-09-06T05:49:56.355Z,16.70
2018-09-06T05:55:01.081Z,16.60
2018-09-06T06:00:09.959Z,16.90
2018-09-06T06:05:13.934Z,17.50
2018-09-06T06:10:18.711Z,17.10
2018-09-06T06:15:22.453Z,16.50
2018-09-06T06:20:25.988Z,16.40
2018-09-06T06:25:29.598Z,16.50
2018-09-06T06:30:33.176Z,16.60
2018-09-06T06:35:36.765Z,16.80
2018-09-06T06:40:40.453Z,17.00
2018-09-06T06:45:44.083Z,17.00
2018-09-06T06:50:49.701Z,17.20
2018-09-06T06:55:53.267Z,17.30
2018-09-06T07:00:56.938Z,17.30
2018-09-06T07:06:02.662Z,17.20
2018-09-06T07:11:06.327Z,17.90
2018-09-06T07:16:10.134Z,18.10
2018-09-06T07:21:13.747Z,18.30
2018-09-06T07:26:19.378Z,18.10
2018-09-06T07:31:26.318Z,17.80
2018-09-06T07:36:29.899Z,17.80
2018-09-06T07:41:34.550Z,18.10
2018-09-06T07:46:41.833Z,18.30
2018-09-06T07:51:45.344Z,18.80
2018-09-06T07:56:48.946Z,20.50
2018-09-06T08:01:52.657Z,20.20
2018-09-06T08:06:56.328Z,19.80
2018-09-06T08:12:00.064Z,19.80
2018-09-06T08:17:03.946Z,20.10
2018-09-06T08:22:07.563Z,19.90
2018-09-06T08:27:11.405Z,19.70
2018-09-06T08:32:15.067Z,20.20
2018-09-06T08:37:18.798Z,20.00
2018-09-06T08:42:22.469Z,20.20
2018-09-06T08:47:28.200Z,20.30
2018-09-06T08:52:35.852Z,21.20
2018-09-06T08:57:39.637Z,20.90
2018-09-06T09:02:43.978Z,20.90
2018-09-06T09:07:51.995Z,20.70
2018-09-06T09:12:56.672Z,20.60
2018-09-06T09:18:11.985Z,20.40
2018-09-06T09:23:25.850Z,21.20
2018-09-06T09:28:34.923Z,22.30
2018-09-06T09:33:44.274Z,22.00
2018-09-06T09:38:48.122Z,22.00
2018-09-06T09:43:55.250Z,21.80
2018-09-06T09:48:58.861Z,21.80
2018-09-06T09:54:03.267Z,22.80
2018-09-06T09:59:10.740Z,22.50
2018-09-06T10:04:19.943Z,22.20
2018-09-06T10:09:28.530Z,22.20
2018-09-06T10:14:36.674Z,21.80
2018-09-06T10:19:42.025Z,21.30
2018-09-06T10:24:46.830Z,21.20
2018-09-06T10:30:04.872Z,21.30
2018-09-06T10:35:14.241Z,20.90
2018-09-06T10:40:17.938Z,20.80
2018-09-06T10:45:21.734Z,20.60
2018-09-06T10:50:26.494Z,20.80
2018-09-06T10:55:31.233Z,20.90
2018-09-06T11:00:41.781Z,21.00
2018-09-06T11:05:52.368Z,21.60
2018-09-06T11:10:58.332Z,22.30
2018-09-06T11:16:03.121Z,22.30
2018-09-06T11:21:06.973Z,21.80
2018-09-06T11:26:11.734Z,22.10
2018-09-06T11:31:15.594Z,22.60
2018-09-06T11:36:20.508Z,22.70
2018-09-06T11:41:26.390Z,23.30
2018-09-06T11:46:31.101Z,23.50
2018-09-06T11:51:35.910Z,23.00
2018-09-06T11:56:39.634Z,22.80
2018-09-06T12:01:43.371Z,23.20
2018-09-06T12:06:47.146Z,23.20
2018-09-06T12:11:50.762Z,22.40
2018-09-06T12:16:55.254Z,22.80
2018-09-06T12:21:59.167Z,23.20
2018-09-06T12:27:02.870Z,23.40
2018-09-06T12:32:06.706Z,23.00
2018-09-06T12:37:13.249Z,23.40
2018-09-06T12:42:28.928Z,23.20
2018-09-06T12:47:53.013Z,23.20
2018-09-06T12:52:57.641Z,23.20
2018-09-06T12:58:09.256Z,23.10
2018-09-06T13:03:12.819Z,23.20
2018-09-06T13:08:16.421Z,23.00
2018-09-06T13:13:22.062Z,23.00
2018-09-06T13:18:29.891Z,22.90
2018-09-06T13:23:36.840Z,23.00
2018-09-06T13:28:40.550Z,22.50
2018-09-06T13:33:45.912Z,22.40
2018-09-06T13:39:05.173Z,22.20
2018-09-06T13:44:09.526Z,22.30
2018-09-06T13:49:13.110Z,22.20
2018-09-06T13:54:16.750Z,22.20
2018-09-06T13:59:20.410Z,22.30
2018-09-06T14:04:23.950Z,22.50
2018-09-06T14:09:27.778Z,22.60
2018-09-06T14:14:33.641Z,22.50
2018-09-06T14:24:53.106Z,22.40
2018-09-06T14:29:56.654Z,22.20
2018-09-06T14:35:02.430Z,22.10
2018-09-06T14:40:06.241Z,21.90
2018-09-06T14:45:09.884Z,22.00
2018-09-06T14:50:13.456Z,21.90
2018-09-06T14:55:17.100Z,21.80
2018-09-06T15:00:21.950Z,21.70
2018-09-06T15:05:25.738Z,21.80
2018-09-06T15:10:40.838Z,21.90
2018-09-06T15:15:44.443Z,22.20
2018-09-06T15:20:48.057Z,22.00
2018-09-06T15:25:59.879Z,21.90
2018-09-06T15:31:05.630Z,21.80
2018-09-06T15:36:16.738Z,21.80
2018-09-06T15:41:27.793Z,21.70
2018-09-06T15:46:32.546Z,21.60
2018-09-06T15:51:36.119Z,21.50
2018-09-06T15:56:39.742Z,21.70
2018-09-06T16:01:43.347Z,21.70
2018-09-06T16:06:46.862Z,21.80
2018-09-06T16:11:50.474Z,21.70
2018-09-06T16:16:54.032Z,21.60
2018-09-06T16:21:57.903Z,21.40
2018-09-06T16:27:01.503Z,21.30
2018-09-06T16:32:05.020Z,21.20
2018-09-06T16:37:09.161Z,21.10
2018-09-06T16:42:12.662Z,21.00
2018-09-06T16:47:16.286Z,21.00
2018-09-06T16:52:20.057Z,20.90
2018-09-06T16:57:23.626Z,20.90
2018-09-06T17:02:29.362Z,20.90
2018-09-06T17:07:32.982Z,20.80
2018-09-06T17:12:41.443Z,20.70
2018-09-06T17:17:45.202Z,20.70
2018-09-06T17:22:48.809Z,20.70
2018-09-06T17:27:52.355Z,20.60
2018-09-06T17:32:56.027Z,20.60
2018-09-06T17:37:59.530Z,20.50
2018-09-06T17:43:03.191Z,20.40
2018-09-06T17:48:07.030Z,20.40
2018-09-06T17:53:22.701Z,20.10
2018-09-06T17:58:26.438Z,20.20
2018-09-06T18:03:30.354Z,20.30
2018-09-06T18:08:42.045Z,20.10
2018-09-06T18:13:47.646Z,20.00
2018-09-06T18:18:51.423Z,19.90
2018-09-06T18:23:56.594Z,20.00
2018-09-06T18:29:00.222Z,19.80
2018-09-06T18:34:03.880Z,19.70
2018-09-06T18:39:07.727Z,19.70
2018-09-06T18:44:11.265Z,19.60
2018-09-06T18:49:14.986Z,19.40
2018-09-06T18:54:18.614Z,19.40
2018-09-06T18:59:22.470Z,19.40
2018-09-06T19:04:28.810Z,19.40
2018-09-06T19:09:32.500Z,19.40
2018-09-06T19:14:36.254Z,19.40
2018-09-06T19:19:49.743Z,19.30
2018-09-06T19:24:53.686Z,19.30
2018-09-06T19:30:00.948Z,19.30
2018-09-06T19:35:04.832Z,19.20
2018-09-06T19:40:09.616Z,19.20
2018-09-06T19:45:15.374Z,19.10
2018-09-06T19:50:19.142Z,19.00
2018-09-06T19:55:42.916Z,18.90
2018-09-06T20:00:46.604Z,18.90
2018-09-06T20:05:50.454Z,18.90
2018-09-06T20:10:54.323Z,18.80
2018-09-06T20:15:58.082Z,18.90
2018-09-06T20:21:06.922Z,18.80
2018-09-06T20:26:10.678Z,18.70
2018-09-06T20:31:20.834Z,18.70
2018-09-06T20:36:24.418Z,18.70
2018-09-06T20:41:29.103Z,18.70
2018-09-06T20:46:32.914Z,18.80
2018-09-06T20:51:36.716Z,18.80
2018-09-06T20:56:45.241Z,18.80
2018-09-06T21:01:54.922Z,18.80
2018-09-06T21:07:09.778Z,18.80
2018-09-06T21:12:13.363Z,18.60
2018-09-06T21:17:19.194Z,18.40
2018-09-06T21:22:23.939Z,18.40
2018-09-06T21:27:27.522Z,18.20
2018-09-06T21:32:36.974Z,18.10
2018-09-06T21:37:45.414Z,18.00
2018-09-06T21:43:13.332Z,18.10
2018-09-06T21:48:16.986Z,18.10
2018-09-06T21:53:22.834Z,18.00
2018-09-06T21:58:27.506Z,17.80
2018-09-06T22:03:38.604Z,17.90
2018-09-06T22:08:45.388Z,17.80
2018-09-06T22:13:52.008Z,17.80
2018-09-06T22:18:57.241Z,17.80
2018-09-06T22:24:00.935Z,17.80
2018-09-06T22:29:05.585Z,17.60
2018-09-06T22:34:14.057Z,17.50
2018-09-06T22:39:17.640Z,17.40
2018-09-06T22:44:21.191Z,17.50
2018-09-06T22:49:24.823Z,17.40
2018-09-06T22:54:28.618Z,17.30
2018-09-06T22:59:32.174Z,17.20
2018-09-06T23:04:35.723Z,17.20
2018-09-06T23:09:44.857Z,17.10
2018-09-06T23:14:48.454Z,17.10
2018-09-06T23:19:51.997Z,17.00
2018-09-06T23:24:55.638Z,17.00
2018-09-06T23:30:03.409Z,16.80
2018-09-06T23:35:07.114Z,16.90
2018-09-06T23:40:11.842Z,16.90
2018-09-06T23:45:15.435Z,16.80
2018-09-06T23:50:19.068Z,16.90
2018-09-06T23:55:22.845Z,16.90
